Time;durP1;ratioP1;P1;durP2;ratioP2;P2;SDS_P1;SDS_P2;PMS_P1;PMS_P2;Temp;Humidity;BMP_temperature;BMP_pressure;BME280_temperature;BME280_humidity;BME280_pressure;Samples;Min_cycle;Max_cycle;Signal;HPM_P1;HPM_P2
2021/06/14 00:00:10;;;;;;;8.82;4.97;;;16.30;99.90;;;;;;5113330;28;19968;-69
2021/06/14 00:02:37;;;;;;;12.98;4.68;;;16.30;99.90;;;;;;5113251;28;20084;-70
2021/06/14 00:05:07;;;;;;;8.65;4.30;;;16.30;99.90;;;;;;5101023;28;20055;-69
2021/06/14 00:07:33;;;;;;;8.90;5.30;;;16.20;99.90;;;;;;5112706;28;20213;-69
2021/06/14 00:09:58;;;;;;;8.50;4.50;;;16.10;99.90;;;;;;5113205;28;20122;-68
2021/06/14 00:12:26;;;;;;;10.45;4.55;;;16.00;99.90;;;;;;5099673;28;20024;-68
2021/06/14 00:14:54;;;;;;;7.28;4.70;;;15.80;99.90;;;;;;5113160;28;20530;-69
2021/06/14 00:17:22;;;;;;;8.90;4.80;;;15.80;99.90;;;;;;5100680;28;20157;-69
2021/06/14 00:19:49;;;;;;;10.93;5.93;;;15.80;99.90;;;;;;5105431;28;20028;-69
2021/06/14 00:22:16;;;;;;;8.85;4.82;;;15.80;99.90;;;;;;5112950;28;20032;-69
2021/06/14 00:24:42;;;;;;;13.70;5.05;;;15.70;99.90;;;;;;5104939;28;20027;-69
2021/06/14 00:27:10;;;;;;;7.57;4.75;;;15.70;99.90;;;;;;5112653;28;20023;-69
2021/06/14 00:29:36;;;;;;;12.30;4.97;;;15.40;99.90;;;;;;5112760;28;20023;-68
2021/06/14 00:32:02;;;;;;;9.65;5.20;;;15.90;99.90;;;;;;5111484;28;20034;-69
2021/06/14 00:34:27;;;;;;;7.85;4.75;;;15.50;99.90;;;;;;5112536;28;20023;-68
2021/06/14 00:36:55;;;;;;;7.38;4.80;;;15.40;99.90;;;;;;5105907;28;20046;-69
2021/06/14 00:39:21;;;;;;;6.97;4.93;;;15.40;99.90;;;;;;5112182;28;20040;-69
2021/06/14 00:41:49;;;;;;;8.30;5.35;;;15.60;99.90;;;;;;5107850;28;20028;-68
2021/06/14 00:44:15;;;;;;;8.40;5.20;;;15.20;99.90;;;;;;5109289;28;20027;-69
2021/06/14 00:46:40;;;;;;;9.02;4.85;;;15.40;99.90;;;;;;5107395;27;20494;-68
2021/06/14 00:49:06;;;;;;;7.35;4.78;;;15.70;99.90;;;;;;5104972;28;20399;-68
2021/06/14 00:51:32;;;;;;;9.90;4.75;;;15.40;99.90;;;;;;5098983;28;20106;-68
2021/06/14 00:54:02;;;;;;;8.35;4.50;;;15.30;99.90;;;;;;5104508;28;20465;-68
2021/06/14 00:56:28;;;;;;;8.90;5.03;;;15.50;99.90;;;;;;5101658;28;20104;-69
2021/06/14 00:58:54;;;;;;;10.07;4.50;;;15.40;99.90;;;;;;5109199;28;20028;-69
2021/06/14 01:01:19;;;;;;;8.38;4.40;;;15.30;99.90;;;;;;5111731;28;20023;-69
2021/06/14 01:03:45;;;;;;;10.80;4.68;;;15.40;99.90;;;;;;5110414;28;20031;-69
2021/06/14 01:06:13;;;;;;;8.95;4.97;;;15.10;99.90;;;;;;5111429;28;20488;-68
2021/06/14 01:08:48;;;;;;;9.10;4.72;;;15.30;99.90;;;;;;5111483;28;20042;-68
2021/06/14 01:11:50;;;;;;;9.02;4.47;;;15.30;99.90;;;;;;5110231;28;20471;-69
2021/06/14 01:14:47;;;;;;;9.85;4.60;;;15.30;99.90;;;;;;5106771;28;20043;-68
2021/06/14 01:17:33;;;;;;;9.70;5.45;;;;;;;;;;5111490;28;20043;-68
2021/06/14 01:20:36;;;;;;;6.82;4.38;;;15.00;99.90;;;;;;5105879;28;20526;-68
2021/06/14 01:23:23;;;;;;;6.35;4.68;;;15.10;99.90;;;;;;5098455;28;20028;-68
2021/06/14 01:26:07;;;;;;;9.57;5.53;;;14.90;99.90;;;;;;5100779;28;20023;-67
2021/06/14 01:28:34;;;;;;;9.63;6.03;;;14.90;99.90;;;;;;5111487;28;20015;-69
2021/06/14 01:31:01;;;;;;;8.93;5.10;;;14.90;99.90;;;;;;5111660;28;20376;-69
2021/06/14 01:33:29;;;;;;;9.65;5.00;;;15.10;99.90;;;;;;5111343;28;20349;-69
2021/06/14 01:36:19;;;;;;;6.53;4.65;;;;;;;;;;5111292;28;20027;-69
2021/06/14 01:38:46;;;;;;;6.90;4.82;;;;;;;;;;5105261;28;20051;-69
2021/06/14 01:41:12;;;;;;;8.93;5.20;;;;;;;;;;5111136;28;20449;-68
2021/06/14 01:43:40;;;;;;;7.70;4.75;;;;;;;;;;5110945;28;20034;-68
2021/06/14 01:46:10;;;;;;;8.73;4.90;;;;;;;;;;5110163;28;20460;-68
2021/06/14 01:48:37;;;;;;;7.05;5.00;;;;;;;;;;5104636;28;20031;-68
2021/06/14 01:51:04;;;;;;;10.55;5.18;;;;;;;;;;5104932;28;20032;-68
2021/06/14 01:53:30;;;;;;;7.63;5.13;;;;;;;;;;5109806;28;20369;-68
2021/06/14 01:55:57;;;;;;;8.80;5.40;;;;;;;;;;5111024;28;20106;-69
2021/06/14 01:58:23;;;;;;;9.45;4.95;;;;;;;;;;5111070;28;20020;-69
2021/06/14 02:00:49;;;;;;;7.63;4.47;;;14.40;99.90;;;;;;5107338;28;20024;-68
2021/06/14 02:03:17;;;;;;;8.02;5.10;;;14.40;99.90;;;;;;5114157;28;20574;-68
2021/06/14 02:05:44;;;;;;;10.00;4.47;;;14.40;99.90;;;;;;5115065;28;20058;-67
2021/06/14 02:08:13;;;;;;;10.73;4.72;;;;;;;;;;5113755;28;20027;-68
2021/06/14 02:10:39;;;;;;;8.20;5.68;;;14.40;99.90;;;;;;5114931;28;20059;-68
2021/06/14 02:13:06;;;;;;;8.68;4.72;;;;;;;;;;5115125;28;20040;-69
2021/06/14 02:15:35;;;;;;;9.85;4.95;;;14.20;99.90;;;;;;5115241;28;20047;-68
2021/06/14 02:18:02;;;;;;;14.52;5.85;;;14.30;99.90;;;;;;5114751;28;20103;-67
2021/06/14 02:20:31;;;;;;;11.02;5.93;;;;;;;;;;5115056;28;20046;-68
2021/06/14 02:22:57;;;;;;;10.10;6.22;;;14.20;99.90;;;;;;5115428;28;20015;-68
2021/06/14 02:25:26;;;;;;;10.07;4.95;;;14.00;99.90;;;;;;5107724;28;20024;-68
2021/06/14 02:27:52;;;;;;;8.00;4.78;;;14.10;99.90;;;;;;5109339;28;20085;-68
2021/06/14 02:30:23;;;;;;;8.60;4.70;;;14.00;99.90;;;;;;5114788;28;20143;-68
2021/06/14 02:32:50;;;;;;;10.80;6.13;;;;;;;;;;5113745;28;20023;-68
2021/06/14 02:35:16;;;;;;;9.88;5.88;;;;;;;;;;5114599;28;20019;-67
2021/06/14 02:37:52;;;;;;;8.23;4.78;;;;;;;;;;5113299;28;20039;-67
2021/06/14 02:40:21;;;;;;;9.73;5.82;;;;;;;;;;5108044;28;20023;-68
2021/06/14 02:42:47;;;;;;;8.75;4.90;;;;;;;;;;5114552;28;20027;-68
2021/06/14 02:45:14;;;;;;;10.77;5.30;;;;;;;;;;5107819;28;20031;-68
2021/06/14 02:47:41;;;;;;;9.57;5.75;;;;;;;;;;5105470;28;20062;-68
2021/06/14 02:50:08;;;;;;;8.45;5.05;;;;;;;;;;5093419;28;20043;-68
2021/06/14 02:52:34;;;;;;;10.68;5.97;;;;;;;;;;5108732;28;20028;-69
2021/06/14 02:55:13;;;;;;;10.15;5.55;;;13.80;99.90;;;;;;5114331;28;20023;-68
2021/06/14 02:57:43;;;;;;;11.15;4.68;;;13.70;99.90;;;;;;5107625;28;20368;-70
2021/06/14 03:00:12;;;;;;;9.85;6.07;;;;;;;;;;5114221;28;20104;-68
2021/06/14 03:02:39;;;;;;;8.95;5.03;;;13.70;99.90;;;;;;5110505;28;20028;-68
2021/06/14 03:05:05;;;;;;;8.70;5.10;;;13.80;99.90;;;;;;5111309;28;20026;-68
2021/06/14 03:07:31;;;;;;;10.07;5.25;;;13.70;99.90;;;;;;5113940;28;20020;-69
2021/06/14 03:09:57;;;;;;;9.82;5.32;;;13.90;99.90;;;;;;5110269;28;20031;-69
2021/06/14 03:12:26;;;;;;;7.82;5.07;;;13.50;99.90;;;;;;5109267;28;20035;-69
2021/06/14 03:14:52;;;;;;;9.07;5.28;;;13.80;99.90;;;;;;5114334;28;20320;-69
2021/06/14 03:17:19;;;;;;;10.68;6.85;;;;;;;;;;5114297;28;20411;-68
2021/06/14 03:19:46;;;;;;;10.60;5.70;;;;;;;;;;5113661;28;20023;-69
2021/06/14 03:22:12;;;;;;;9.90;5.57;;;;;;;;;;5109580;28;20024;-69
2021/06/14 03:24:41;;;;;;;8.95;5.07;;;;;;;;;;5103234;28;20104;-69
2021/06/14 03:27:10;;;;;;;9.48;5.72;;;;;;;;;;5112320;28;20023;-70
2021/06/14 03:29:37;;;;;;;9.82;5.50;;;;;;;;;;5106891;28;20102;-69
2021/06/14 03:32:04;;;;;;;10.35;5.55;;;;;;;;;;5113509;28;20409;-70
2021/06/14 03:34:30;;;;;;;9.70;4.80;;;;;;;;;;5113462;28;20578;-69
2021/06/14 03:36:57;;;;;;;10.45;5.20;;;;;;;;;;5106858;28;20032;-69
2021/06/14 03:39:29;;;;;;;7.47;5.53;;;;;;;;;;5113495;28;20138;-69
2021/06/14 03:41:55;;;;;;;;;;;;;;;;;;5113857;28;20110;-68
2021/06/14 03:44:21;;;;;;;12.40;6.03;;;;;;;;;;5106595;28;20025;-68
2021/06/14 03:46:48;;;;;;;8.95;5.88;;;;;;;;;;5108883;28;20061;-69
2021/06/14 03:49:14;;;;;;;11.32;5.20;;;;;;;;;;5109835;28;20036;-68
2021/06/14 03:51:40;;;;;;;12.40;5.15;;;;;;;;;;5113082;28;20039;-68
2021/06/14 03:54:06;;;;;;;9.93;5.68;;;;;;;;;;5113089;28;20035;-69
2021/06/14 03:56:33;;;;;;;10.07;5.18;;;;;;;;;;5113223;28;20547;-68
2021/06/14 03:58:59;;;;;;;7.97;5.03;;;;;;;;;;5112869;28;20027;-68
2021/06/14 04:01:28;;;;;;;9.05;6.30;;;;;;;;;;5113266;28;20027;-67
2021/06/14 04:06:27;;;;;;;9.23;5.10;;;;;;;;;;5112933;28;20405;-68
2021/06/14 04:08:53;;;;;;;7.93;4.82;;;;;;;;;;5106265;28;20045;-68
2021/06/14 04:11:20;;;;;;;12.32;5.65;;;;;;;;;;5111538;28;20114;-68
2021/06/14 04:13:49;;;;;;;8.88;4.75;;;;;;;;;;5113111;28;20033;-68
2021/06/14 04:16:15;;;;;;;7.55;5.15;;;;;;;;;;5099658;28;20042;-68
2021/06/14 04:18:41;;;;;;;9.35;5.03;;;;;;;;;;5112899;28;20023;-69
2021/06/14 04:21:07;;;;;;;12.55;5.22;;;;;;;;;;5113077;28;20069;-68
2021/06/14 04:23:33;;;;;;;10.75;5.00;;;;;;;;;;5103039;28;20456;-68
2021/06/14 04:25:59;;;;;;;10.10;5.38;;;;;;;;;;5108129;28;20034;-68
2021/06/14 04:28:25;;;;;;;10.05;5.15;;;;;;;;;;5105969;28;20028;-68
2021/06/14 04:30:53;;;;;;;8.32;4.80;;;;;;;;;;5112323;28;20091;-68
2021/06/14 04:33:19;;;;;;;12.65;4.68;;;;;;;;;;5112234;28;20031;-68
2021/06/14 04:35:45;;;;;;;6.32;4.25;;;;;;;;;;5112416;28;20114;-68
2021/06/14 04:38:12;;;;;;;9.05;5.53;;;;;;;;;;5112060;28;20052;-68
2021/06/14 04:40:38;;;;;;;8.35;5.10;;;;;;;;;;5103771;28;20188;-68
2021/06/14 04:43:04;;;;;;;10.90;5.25;;;;;;;;;;5105960;28;20047;-67
2021/06/14 04:45:30;;;;;;;8.85;5.28;;;;;;;;;;5106439;28;20390;-68
2021/06/14 04:47:56;;;;;;;10.32;5.22;;;;;;;;;;5105140;28;20108;-68
2021/06/14 04:50:22;;;;;;;10.98;5.10;;;;;;;;;;5097911;28;20039;-68
2021/06/14 04:52:48;;;;;;;10.13;5.65;;;;;;;;;;5092044;28;20016;-67
2021/06/14 04:55:14;;;;;;;7.78;4.60;;;;;;;;;;5111878;28;20015;-69
2021/06/14 04:57:42;;;;;;;10.38;4.70;;;;;;;;;;5105627;28;20080;-69
2021/06/14 05:00:09;;;;;;;12.75;4.75;;;;;;;;;;5104433;28;20110;-70
2021/06/14 05:02:37;;;;;;;12.45;4.95;;;;;;;;;;5105476;28;20035;-69
2021/06/14 05:05:04;;;;;;;9.45;4.78;;;;;;;;;;5104215;28;20031;-68
2021/06/14 05:07:32;;;;;;;11.35;6.18;;;;;;;;;;5091684;28;20073;-69
2021/06/14 05:09:59;;;;;;;8.40;4.60;;;;;;;;;;5105268;28;20108;-69
2021/06/14 05:12:25;;;;;;;8.20;5.28;;;;;;;;;;5111661;28;20031;-69
2021/06/14 05:14:51;;;;;;;9.88;4.80;;;;;;;;;;5110586;28;20361;-69
2021/06/14 05:17:17;;;;;;;6.93;4.53;;;;;;;;;;5111493;28;20027;-70
2021/06/14 05:19:45;;;;;;;10.88;5.15;;;;;;;;;;5111405;28;20088;-69
2021/06/14 05:22:11;;;;;;;9.23;4.97;;;;;;;;;;5111452;28;20034;-69
2021/06/14 05:24:37;;;;;;;10.95;4.53;;;;;;;;;;5105674;28;20039;-69
2021/06/14 05:27:04;;;;;;;9.43;4.90;;;;;;;;;;5105190;28;20361;-69
2021/06/14 05:29:32;;;;;;;7.72;4.30;;;;;;;;;;5110641;28;20468;-69
2021/06/14 05:31:58;;;;;;;9.45;5.07;;;;;;;;;;5111259;28;20043;-69
2021/06/14 05:34:24;;;;;;;9.98;5.00;;;;;;;;;;5097485;28;20039;-68
2021/06/14 05:36:53;;;;;;;8.20;5.03;;;;;;;;;;5111379;28;20051;-68
2021/06/14 05:39:19;;;;;;;7.43;3.80;;;;;;;;;;5111110;28;20044;-70
2021/06/14 05:41:45;;;;;;;9.00;4.97;;;;;;;;;;5111419;28;20100;-70
2021/06/14 05:44:11;;;;;;;7.40;3.95;;;;;;;;;;5106466;28;20104;-69
2021/06/14 05:46:39;;;;;;;13.63;4.78;;;;;;;;;;5104885;28;20097;-69
2021/06/14 05:49:05;;;;;;;12.68;4.57;;;;;;;;;;5091193;28;20024;-68
2021/06/14 05:51:32;;;;;;;10.20;4.50;;;;;;;;;;5102937;28;20027;-68
2021/06/14 05:53:58;;;;;;;6.38;4.25;;;;;;;;;;5111040;28;20451;-69
2021/06/14 05:56:24;;;;;;;10.10;4.55;;;;;;;;;;5111286;28;20043;-69
2021/06/14 05:58:50;;;;;;;11.63;4.38;;;;;;;;;;5107087;28;20074;-67
2021/06/14 06:01:16;;;;;;;8.00;3.67;;;;;;;;;;5108848;28;20055;-71
2021/06/14 06:03:45;;;;;;;7.25;3.53;;;;;;;;;;5111010;28;20020;-69
2021/06/14 06:06:11;;;;;;;7.32;3.72;;;;;;;;;;5111024;28;20031;-71
2021/06/14 06:08:36;;;;;;;7.22;4.03;;;;;;;;;;5111011;28;20028;-69
2021/06/14 06:11:03;;;;;;;5.78;3.53;;;;;;;;;;5110954;28;20368;-68
2021/06/14 06:13:32;;;;;;;6.85;3.42;;;;;;;;;;5110998;28;20031;-68
2021/06/14 06:15:58;;;;;;;9.68;4.57;;;;;;;;;;5110264;28;20046;-69
2021/06/14 06:18:24;;;;;;;8.70;3.53;;;;;;;;;;5110338;28;20023;-68
2021/06/14 06:20:52;;;;;;;11.15;4.25;;;;;;;;;;5110868;28;20420;-69
2021/06/14 06:23:19;;;;;;;6.40;3.63;;;;;;;;;;5100851;28;20032;-69
2021/06/14 06:25:45;;;;;;;7.38;3.63;;;;;;;;;;5100823;28;20027;-69
2021/06/14 06:28:11;;;;;;;9.57;4.00;;;;;;;;;;5110773;28;20353;-68
2021/06/14 06:33:16;;;;;;;12.02;4.88;;;;;;;;;;5108951;27;20125;-70
2021/06/14 06:35:45;;;;;;;6.75;3.70;;;;;;;;;;5097924;28;20030;-70
2021/06/14 06:38:11;;;;;;;5.25;3.40;;;;;;;;;;5088796;28;20025;-69
2021/06/14 06:40:37;;;;;;;6.72;3.63;;;;;;;;;;5088521;28;20020;-69
2021/06/14 06:43:03;;;;;;;9.32;3.80;;;;;;;;;;5088583;28;20111;-70
2021/06/14 06:45:29;;;;;;;8.43;3.58;;;;;;;;;;5097954;28;20051;-69
2021/06/14 06:47:55;;;;;;;8.55;3.70;;;;;;;;;;5102382;28;20034;-69
2021/06/14 06:50:21;;;;;;;7.57;3.70;;;;;;;;;;5108539;28;20024;-69
2021/06/14 06:52:47;;;;;;;3.95;3.20;;;;;;;;;;5105746;28;20019;-70
2021/06/14 06:55:15;;;;;;;11.18;3.90;;;;;;;;;;5083338;28;20020;-69
2021/06/14 06:57:42;;;;;;;5.65;3.38;;;;;;;;;;5086972;28;20048;-69
2021/06/14 07:00:10;;;;;;;6.45;3.85;;;;;;;;;;5088090;28;20031;-70
2021/06/14 07:02:36;;;;;;;9.70;4.47;;;;;;;;;;5087680;28;20419;-69
2021/06/14 07:05:02;;;;;;;9.43;3.85;;;;;;;;;;5082912;28;20028;-69
2021/06/14 07:07:30;;;;;;;11.23;3.17;;;;;;;;;;5101895;28;20077;-69
2021/06/14 07:09:57;;;;;;;5.68;2.85;;;;;;;;;;5103376;28;20027;-70
2021/06/14 07:12:23;;;;;;;5.97;3.10;;;;;;;;;;5104926;28;20020;-69
2021/06/14 07:14:51;;;;;;;4.60;3.15;;;;;;;;;;5091461;28;20036;-69
2021/06/14 07:17:19;;;;;;;5.90;3.60;;;;;;;;;;5087848;28;20024;-70
2021/06/14 07:19:47;;;;;;;6.55;3.05;;;;;;;;;;5086717;28;20457;-69
2021/06/14 07:22:16;;;;;;;9.38;3.63;;;;;;;;;;5090610;28;20028;-72
2021/06/14 16:29:49;;;;;;;8.43;3.38;;;;;;;;;;5129134;27;20357;-67
2021/06/14 16:32:15;;;;;;;6.65;3.70;;;;;;;;;;5128931;28;20023;-65
2021/06/14 16:34:42;;;;;;;4.10;2.97;;;;;;;;;;5129087;28;20024;-67
2021/06/14 16:37:08;;;;;;;7.10;3.42;;;;;;;;;;5128773;28;20024;-69
2021/06/14 16:41:37;;;;;;;4.63;2.80;;;;;;;;;;5108590;27;20129;-66
2021/06/14 16:44:03;;;;;;;11.60;3.25;;;;;;;;;;5097679;28;20046;-66
2021/06/14 16:46:29;;;;;;;5.55;3.00;;;;;;;;;;5096265;28;20523;-65
2021/06/14 16:48:58;;;;;;;6.35;3.67;;;;;;;;;;5098020;28;20021;-66
2021/06/14 16:51:24;;;;;;;9.07;3.38;;;;;;;;;;5095704;28;20043;-66
2021/06/14 16:53:50;;;;;;;5.38;2.88;;;;;;;;;;5096741;28;20055;-66
2021/06/14 16:56:16;;;;;;;7.95;3.80;;;;;;;;;;5094290;28;20455;-66
2021/06/14 16:58:42;;;;;;;8.57;3.67;;;;;;;;;;5102189;28;20020;-66
2021/06/14 17:01:09;;;;;;;7.93;3.72;;;;;;;;;;5095235;28;20222;-67
2021/06/14 17:03:35;;;;;;;6.40;3.10;;;;;;;;;;5098760;28;20020;-67
2021/06/14 17:06:01;;;;;;;7.43;3.55;;;;;;;;;;5095626;28;20028;-66
2021/06/14 17:08:29;;;;;;;6.03;3.20;;;;;;;;;;5096470;28;20052;-67
2021/06/14 17:10:55;;;;;;;7.15;3.58;;;;;;;;;;5095461;28;20020;-67
2021/06/14 17:13:21;;;;;;;7.82;3.67;;;;;;;;;;5099921;28;20028;-67
2021/06/14 17:15:47;;;;;;;6.25;3.17;;;;;;;;;;5096230;28;20020;-66
2021/06/14 17:18:13;;;;;;;6.25;3.20;;;;;;;;;;5095396;28;20102;-67
2021/06/14 17:20:39;;;;;;;7.95;3.47;;;;;;;;;;5094905;28;20135;-67
2021/06/14 17:23:20;;;;;;;7.35;3.72;;;;;;;;;;5046019;28;20309;-65
2021/06/14 17:25:46;;;;;;;6.75;3.38;;;;;;;;;;5014010;28;20505;-64
2021/06/14 17:28:12;;;;;;;5.38;3.28;;;;;;;;;;5013317;28;20490;-66
2021/06/14 17:33:11;;;;;;;9.13;3.58;;;;;;;;;;5136833;27;20797;-65
2021/06/14 17:35:38;;;;;;;6.28;3.42;;;;;;;;;;5114609;28;20091;-65
2021/06/14 17:38:05;;;;;;;7.82;3.65;;;;;;;;;;5119204;28;20027;-65
2021/06/14 17:40:31;;;;;;;9.07;3.45;;;;;;;;;;5113567;28;20023;-65
2021/06/14 17:42:57;;;;;;;7.10;3.05;;;;;;;;;;5119389;28;20391;-65
2021/06/14 17:45:23;;;;;;;10.35;3.50;;;;;;;;;;5114755;28;20094;-65
2021/06/14 17:47:55;;;;;;;7.20;3.08;;;;;;;;;;5111863;28;20076;-64
2021/06/14 17:50:25;;;;;;;5.85;3.25;;;;;;;;;;5119614;28;20020;-65
2021/06/14 17:52:51;;;;;;;8.30;3.40;;;;;;;;;;5090777;28;20038;-66
2021/06/14 17:55:18;;;;;;;4.57;2.88;;;;;;;;;;5119183;28;20028;-66
2021/06/14 17:57:47;;;;;;;9.35;3.78;;;;;;;;;;5108629;28;20020;-65
2021/06/14 18:00:16;;;;;;;6.53;3.20;;;;;;;;;;5108373;28;20362;-66
2021/06/14 18:02:44;;;;;;;5.55;2.58;;;;;;;;;;5108583;28;20032;-66
2021/06/14 18:05:10;;;;;;;4.50;2.90;;;;;;;;;;5103495;28;20028;-65
2021/06/14 18:07:36;;;;;;;11.45;3.60;;;;;;;;;;5090360;28;20052;-66
2021/06/14 18:10:04;;;;;;;8.32;4.78;;;;;;;;;;5108508;28;20357;-65
2021/06/14 18:12:46;;;;;;;9.40;3.40;;;;;;;;;;5129836;27;20310;-65
2021/06/14 18:15:12;;;;;;;5.35;3.15;;;;;;;;;;5129731;28;20023;-65
2021/06/14 18:17:39;;;;;;;4.65;3.28;;;;;;;;;;5136075;27;20023;-66
2021/06/14 18:20:06;;;;;;;4.60;2.88;;;;;;;;;;5129418;28;20394;-65
2021/06/14 18:23:20;;;;;;;7.63;3.15;;;;;;;;;;5065164;28;20310;-65
2021/06/14 18:25:48;;;;;;;4.47;3.17;;;;;;;;;;5065275;28;20025;-66
2021/06/14 18:34:04;;;;;;;6.13;3.10;;;;;;;;;;5130267;27;20298;-65
2021/06/14 18:36:30;;;;;;;6.82;3.25;;;;;;;;;;5111615;28;20038;-65
2021/06/14 18:38:57;;;;;;;6.90;2.90;;;;;;;;;;5111020;28;20413;-65
2021/06/14 18:41:24;;;;;;;8.57;3.42;;;;;;;;;;5122615;28;20024;-65
2021/06/14 18:43:50;;;;;;;5.80;2.90;;;;;;;;;;5108912;28;20024;-65
2021/06/14 18:46:19;;;;;;;7.25;2.78;;;;;;;;;;5105084;28;20027;-66
2021/06/14 18:48:50;;;;;;;5.88;2.85;;;;;;;;;;5110209;28;20048;-67
2021/06/14 18:51:17;;;;;;;;;;;;;;;;;;5108542;28;20381;-65
2021/06/14 18:53:43;;;;;;;4.28;3.28;;;;;;;;;;5117139;27;20466;-66
2021/06/14 18:56:11;;;;;;;7.93;3.20;;;;;;;;;;5113717;28;20020;-67
2021/06/14 18:58:37;;;;;;;6.40;3.40;;;;;;;;;;5119698;28;20394;-66
2021/06/14 19:01:03;;;;;;;6.88;3.72;;;;;;;;;;5122644;28;20027;-66
2021/06/14 19:03:30;;;;;;;6.72;3.83;;;;;;;;;;5108454;28;20457;-66
2021/06/14 19:05:58;;;;;;;5.28;2.92;;;;;;;;;;5108234;28;20074;-66
2021/06/14 19:08:26;;;;;;;7.13;4.05;;;;;;;;;;5108320;28;20020;-66
2021/06/14 19:11:26;;;;;;;5.63;2.80;;;;;;;;;;5140339;27;20143;-66
2021/06/14 19:13:52;;;;;;;8.60;3.60;;;;;;;;;;5129170;28;20084;-66
2021/06/14 19:16:18;;;;;;;5.43;3.33;;;;;;;;;;5129129;28;20012;-65
2021/06/14 19:18:44;;;;;;;5.80;3.25;;;;;;;;;;5129177;28;20019;-66
2021/06/14 19:21:10;;;;;;;5.35;3.33;;;;;;;;;;5129033;28;20042;-66
2021/06/14 19:23:36;;;;;;;8.23;3.90;;;;;;;;;;5127858;28;20110;-66
2021/06/14 19:26:02;;;;;;;7.28;4.32;;;;;;;;;;5129056;27;20819;-66
2021/06/14 19:28:28;;;;;;;8.70;3.78;;;;;;;;;;5128987;27;20039;-67
2021/06/14 19:30:54;;;;;;;5.45;3.28;;;;;;;;;;5128877;28;20026;-66
2021/06/14 19:33:21;;;;;;;5.57;3.53;;;;;;;;;;5128868;27;20023;-65
2021/06/14 19:35:49;;;;;;;9.25;3.75;;;;;;;;;;5128662;27;20051;-67
2021/06/14 19:38:16;;;;;;;9.27;3.38;;;;;;;;;;5128792;27;20019;-67
2021/06/14 19:40:42;;;;;;;8.07;3.67;;;;;;;;;;5129156;28;20086;-66
2021/06/14 19:43:08;;;;;;;6.72;3.50;;;;;;;;;;5128863;27;20027;-66
2021/06/14 19:45:34;;;;;;;6.70;4.30;;;;;;;;;;5127010;28;20088;-66
2021/06/14 19:48:02;;;;;;;10.13;4.80;;;;;;;;;;5128428;28;20413;-67
2021/06/14 19:50:29;;;;;;;6.55;4.00;;;;;;;;;;5128400;28;20405;-67
2021/06/14 19:52:58;;;;;;;9.32;4.85;;;;;;;;;;5126893;28;20094;-67
2021/06/14 19:55:24;;;;;;;8.68;4.78;;;;;;;;;;5128650;28;20034;-67
2021/06/14 19:57:50;;;;;;;9.13;4.88;;;;;;;;;;5127094;28;20026;-67
2021/06/14 20:00:19;;;;;;;12.63;4.88;;;;;;;;;;5128321;28;20041;-67
2021/06/14 20:04:02;;;;;;;9.90;5.18;;;;;;;;;;5045894;28;20312;-68
2021/06/14 20:06:28;;;;;;;9.95;4.78;;;;;;;;;;5014496;28;20417;-69
2021/06/14 20:08:55;;;;;;;8.52;4.78;;;;;;;;;;5013069;28;20064;-67
2021/06/14 20:11:21;;;;;;;10.68;6.10;;;;;;;;;;5015201;28;20365;-68
2021/06/14 20:13:47;;;;;;;13.32;5.50;;;;;;;;;;5014225;28;20026;-67
2021/06/14 20:16:13;;;;;;;14.57;8.00;;;;;;;;;;5014793;28;20347;-68
2021/06/14 20:18:39;;;;;;;14.48;6.85;;;;;;;;;;5011362;28;20022;-67
2021/06/14 20:21:07;;;;;;;12.18;6.53;;;;;;;;;;5014964;28;20026;-67
2021/06/14 20:23:44;;;;;;;13.98;6.60;;;;;;;;;;5129316;27;20313;-67
2021/06/14 20:26:10;;;;;;;16.42;6.80;;;;;;;;;;5117292;28;20145;-67
2021/06/14 20:28:36;;;;;;;13.18;7.25;;;;;;;;;;5117125;28;20063;-67
2021/06/14 20:31:05;;;;;;;16.48;6.70;;;;;;;;;;5120670;28;20035;-67
2021/06/14 20:33:31;;;;;;;10.45;5.70;;;;;;;;;;5117638;28;20027;-68
2021/06/14 20:35:59;;;;;;;10.63;7.05;;;;;;;;;;5119398;28;20399;-66
2021/06/14 20:38:25;;;;;;;12.70;6.85;;;;;;;;;;5117750;28;20047;-66
2021/06/14 20:41:43;;;;;;;14.07;7.40;;;;;;;;;;5132183;27;20167;-68
2021/06/14 20:44:09;;;;;;;14.70;8.23;;;;;;;;;;5109783;28;20023;-68
2021/06/14 20:46:35;;;;;;;15.32;7.88;;;;;;;;;;5108834;28;20085;-67
2021/06/14 20:49:01;;;;;;;9.32;5.38;;;;;;;;;;5107594;28;20016;-67
2021/06/14 20:51:27;;;;;;;10.68;5.10;;;;;;;;;;5108978;28;20471;-67
2021/06/14 20:53:53;;;;;;;9.75;5.55;;;;;;;;;;5112846;28;20076;-68
2021/06/14 20:56:22;;;;;;;9.27;6.50;;;;;;;;;;5112395;28;20093;-68
2021/06/14 20:58:48;;;;;;;10.30;6.32;;;;;;;;;;5108673;28;20405;-68
2021/06/14 21:01:14;;;;;;;11.93;6.05;;;;;;;;;;5108734;28;20062;-67
2021/06/14 21:10:51;;;;;;;7.38;5.35;;;;;;;;;;5144779;27;20302;-66
2021/06/14 21:13:17;;;;;;;10.95;5.40;;;;;;;;;;5122192;27;20027;-66
2021/06/14 21:15:43;;;;;;;10.63;5.78;;;;;;;;;;5120139;27;20040;-68
2021/06/14 21:18:09;;;;;;;11.10;5.85;;;;;;;;;;5123408;27;20166;-67
2021/06/14 21:20:35;;;;;;;12.50;7.18;;;;;;;;;;5129231;28;20023;-67
2021/06/14 21:23:01;;;;;;;14.52;6.07;;;;;;;;;;5129250;27;20034;-66
2021/06/14 21:25:27;;;;;;;14.65;6.47;;;;;;;;;;5137995;27;20026;-66
2021/06/14 21:27:53;;;;;;;14.23;6.30;;;;;;;;;;5143259;27;20023;-67
2021/06/14 21:30:19;;;;;;;12.05;6.32;;;;;;;;;;5134507;27;20084;-67
2021/06/14 21:32:45;;;;;;;11.60;5.93;;;;;;;;;;5137272;27;20099;-67
2021/06/14 21:35:13;;;;;;;10.88;6.53;;;;;;;;;;5117167;28;20019;-66
2021/06/14 21:37:39;;;;;;;11.63;5.40;;;;;;;;;;5093224;28;20051;-66
2021/06/14 21:40:07;;;;;;;10.88;5.72;;;;;;;;;;5123121;28;20027;-67
2021/06/14 21:42:35;;;;;;;8.65;5.07;;;;;;;;;;5128520;28;20106;-67
2021/06/14 21:45:03;;;;;;;8.77;5.13;;;;;;;;;;5137957;27;20343;-67
2021/06/14 21:47:29;;;;;;;11.15;6.43;;;;;;;;;;5131277;27;20035;-67
2021/06/14 21:49:55;;;;;;;12.35;7.60;;;;;;;;;;5148588;27;20059;-67
2021/06/14 21:52:21;;;;;;;16.10;6.95;;;;;;;;;;5136334;27;20207;-67
2021/06/14 21:54:47;;;;;;;11.55;6.57;;;;;;;;;;5135120;27;20460;-67
2021/06/14 21:57:16;;;;;;;11.30;6.88;;;;;;;;;;5090373;28;20065;-67
2021/06/14 21:59:42;;;;;;;11.32;5.78;;;;;;;;;;5107738;28;20043;-67
2021/06/14 22:02:08;;;;;;;8.98;5.40;;;;;;;;;;5103455;28;20024;-65
2021/06/14 22:04:34;;;;;;;12.02;5.57;;;;;;;;;;5121682;27;20381;-66
2021/06/14 22:07:00;;;;;;;10.77;4.82;;;;;;;;;;5143141;27;20031;-66
2021/06/14 22:09:27;;;;;;;13.00;6.30;;;;;;;;;;5134020;27;20042;-67
2021/06/14 22:11:57;;;;;;;9.45;5.32;;;;;;;;;;5125572;28;20020;-67
2021/06/14 22:14:24;;;;;;;8.80;5.40;;;;;;;;;;5132451;27;20080;-66
2021/06/14 22:16:52;;;;;;;8.27;5.07;;;;;;;;;;5124964;27;20031;-67
2021/06/14 22:19:18;;;;;;;9.30;5.18;;;;;;;;;;5090103;28;20034;-66
2021/06/14 22:21:45;;;;;;;8.68;5.57;;;;;;;;;;5103081;28;20035;-67
2021/06/14 22:24:11;;;;;;;11.23;5.85;;;;;;;;;;5109210;28;20020;-66
2021/06/14 22:26:40;;;;;;;11.50;5.22;;;;;;;;;;5113637;28;20047;-67
2021/06/14 22:29:06;;;;;;;12.98;5.53;;;;;;;;;;5119789;27;20019;-66
2021/06/14 22:31:32;;;;;;;11.57;5.80;;;;;;;;;;5128154;27;20110;-67
2021/06/14 22:33:58;;;;;;;8.95;5.35;;;;;;;;;;5129925;27;20344;-67
2021/06/14 22:36:24;;;;;;;13.23;6.40;;;;;;;;;;5114374;28;20024;-67
2021/06/14 22:38:50;;;;;;;8.25;4.97;;;;;;;;;;5107395;28;20414;-66
2021/06/14 22:41:17;;;;;;;12.65;5.90;;;;;;;;;;5107518;28;20032;-67
2021/06/14 22:43:43;;;;;;;8.27;5.28;;;;;;;;;;5117852;27;20023;-66
2021/06/14 22:46:12;;;;;;;9.98;6.55;;;;;;;;;;5132816;27;20037;-66
2021/06/14 22:48:38;;;;;;;7.22;5.30;;;;;;;;;;5128136;27;20305;-66
2021/06/14 22:51:04;;;;;;;13.00;5.38;;;;;;;;;;5113941;28;20020;-66
2021/06/14 22:53:30;;;;;;;8.27;5.07;;;;;;;;;;5112976;27;20023;-66
2021/06/14 22:55:56;;;;;;;10.77;5.32;;;;;;;;;;5110669;27;20028;-66
2021/06/14 22:58:22;;;;;;;7.35;5.07;;;;;;;;;;5114099;28;20019;-66
2021/06/14 23:00:49;;;;;;;10.13;5.43;;;;;;;;;;5104472;28;20043;-67
2021/06/14 23:03:17;;;;;;;9.95;5.20;;;;;;;;;;5093927;28;20032;-67
2021/06/14 23:05:43;;;;;;;11.55;5.85;;;;;;;;;;5131213;27;20023;-67
2021/06/14 23:08:09;;;;;;;10.98;5.72;;;;;;;;;;5132569;27;20515;-66
2021/06/14 23:10:35;;;;;;;12.98;6.28;;;;;;;;;;5129084;27;20128;-66
2021/06/14 23:13:01;;;;;;;13.20;6.50;;;;;;;;;;5117268;27;20455;-67
2021/06/14 23:15:27;;;;;;;7.72;5.63;;;;;;;;;;5076750;28;20028;-67
2021/06/14 23:17:53;;;;;;;9.95;5.40;;;;;;;;;;5114945;27;20019;-67
2021/06/14 23:20:19;;;;;;;10.63;5.68;;;;;;;;;;5106734;28;20036;-67
2021/06/14 23:22:47;;;;;;;10.82;6.47;;;;;;;;;;5113266;28;20107;-67
2021/06/14 23:25:14;;;;;;;13.48;5.55;;;;;;;;;;5120968;27;20027;-67
2021/06/14 23:27:40;;;;;;;10.50;6.43;;;;;;;;;;5115680;27;20057;-66
2021/06/14 23:30:10;;;;;;;15.57;5.75;;;;;;;;;;5133833;27;20102;-65
2021/06/14 23:32:36;;;;;;;10.45;6.45;;;;;;;;;;5120718;27;20455;-65
2021/06/14 23:35:05;;;;;;;12.25;5.82;;;;;;;;;;5119509;27;20381;-66
2021/06/14 23:37:31;;;;;;;11.15;5.55;;;;;;;;;;5092973;28;20020;-66
2021/06/14 23:39:57;;;;;;;14.90;6.20;;;;;;;;;;5106640;28;20032;-67
2021/06/14 23:42:25;;;;;;;12.00;6.35;;;;;;;;;;5106604;28;20035;-66
2021/06/14 23:44:51;;;;;;;12.82;6.20;;;;;;;;;;5120014;27;20132;-66
2021/06/14 23:47:18;;;;;;;11.60;6.93;;;;;;;;;;5133356;27;20019;-66
2021/06/14 23:49:44;;;;;;;9.80;6.43;;;;;;;;;;5127151;27;20361;-67